sensor_id;sensor_type;location;lat;lon;timestamp;pressure;altitude;pressure_sealevel;temperature;humidity
14383;BME280;7275;50.328;8.720;2023-07-20T00:02:11;99454.16;;;24.72;39.00
14383;BME280;7275;50.328;8.720;2023-07-20T00:04:40;99455.31;;;24.69;39.12
14383;BME280;7275;50.328;8.720;2023-07-20T00:07:08;99444.66;;;24.68;38.90
14383;BME280;7275;50.328;8.720;2023-07-20T00:09:35;99452.06;;;24.66;38.93
14383;BME280;7275;50.328;8.720;2023-07-20T00:12:03;99452.06;;;24.66;39.12
14383;BME280;7275;50.328;8.720;2023-07-20T00:14:31;99449.50;;;24.64;39.09
14383;BME280;7275;50.328;8.720;2023-07-20T00:16:59;99446.97;;;24.63;39.06
14383;BME280;7275;50.328;8.720;2023-07-20T00:19:27;99458.06;;;24.59;39.23
14383;BME280;7275;50.328;8.720;2023-07-20T00:21:56;99464.50;;;24.58;39.73
14383;BME280;7275;50.328;8.720;2023-07-20T00:24:23;99463.63;;;24.58;39.48
14383;BME280;7275;50.328;8.720;2023-07-20T00:26:51;99458.53;;;24.55;39.51
14383;BME280;7275;50.328;8.720;2023-07-20T00:29:19;99453.44;;;24.52;39.71
14383;BME280;7275;50.328;8.720;2023-07-20T00:31:46;99458.28;;;24.48;39.96
14383;BME280;7275;50.328;8.720;2023-07-20T00:34:17;99449.41;;;24.38;40.15
14383;BME280;7275;50.328;8.720;2023-07-20T00:36:44;99461.19;;;24.37;40.05
14383;BME280;7275;50.328;8.720;2023-07-20T00:39:13;99464.50;;;24.31;40.05
14383;BME280;7275;50.328;8.720;2023-07-20T00:41:41;99459.38;;;24.28;39.97
14383;BME280;7275;50.328;8.720;2023-07-20T00:44:08;99457.97;;;24.24;40.31
14383;BME280;7275;50.328;8.720;2023-07-20T00:46:36;99466.56;;;24.20;40.65
14383;BME280;7275;50.328;8.720;2023-07-20T00:49:04;99467.00;;;24.15;40.49
14383;BME280;7275;50.328;8.720;2023-07-20T00:51:32;99458.63;;;24.09;40.85
14383;BME280;7275;50.328;8.720;2023-07-20T00:54:00;99468.72;;;23.97;40.57
14383;BME280;7275;50.328;8.720;2023-07-20T00:56:30;99466.81;;;23.80;41.22
14383;BME280;7275;50.328;8.720;2023-07-20T00:58:58;99473.06;;;23.71;41.31
14383;BME280;7275;50.328;8.720;2023-07-20T01:01:25;99474.63;;;23.64;41.37
14383;BME280;7275;50.328;8.720;2023-07-20T01:03:53;99458.16;;;23.57;41.60
14383;BME280;7275;50.328;8.720;2023-07-20T01:06:29;99463.88;;;23.54;41.46
14383;BME280;7275;50.328;8.720;2023-07-20T01:09:04;99468.81;;;23.49;41.80
14383;BME280;7275;50.328;8.720;2023-07-20T01:11:41;99467.41;;;23.45;41.32
14383;BME280;7275;50.328;8.720;2023-07-20T01:14:11;99469.84;;;23.39;41.58
14383;BME280;7275;50.328;8.720;2023-07-20T01:16:39;99473.97;;;23.33;41.76
14383;BME280;7275;50.328;8.720;2023-07-20T01:19:06;99472.94;;;23.25;41.66
14383;BME280;7275;50.328;8.720;2023-07-20T01:21:41;99469.09;;;23.18;41.58
14383;BME280;7275;50.328;8.720;2023-07-20T01:24:26;99470.84;;;23.09;41.85
14383;BME280;7275;50.328;8.720;2023-07-20T01:27:23;99470.81;;;22.99;42.13
14383;BME280;7275;50.328;8.720;2023-07-20T01:30:11;99474.22;;;22.92;42.24
14383;BME280;7275;50.328;8.720;2023-07-20T01:32:43;99471.94;;;22.87;42.16
14383;BME280;7275;50.328;8.720;2023-07-20T01:35:13;99462.56;;;22.82;42.42
14383;BME280;7275;50.328;8.720;2023-07-20T01:37:44;99471.94;;;22.78;42.36
14383;BME280;7275;50.328;8.720;2023-07-20T01:40:14;99465.09;;;22.74;42.38
14383;BME280;7275;50.328;8.720;2023-07-20T01:42:44;99461.97;;;22.69;42.50
14383;BME280;7275;50.328;8.720;2023-07-20T01:45:12;99473.19;;;22.64;42.71
14383;BME280;7275;50.328;8.720;2023-07-20T01:47:39;99473.44;;;22.61;42.57
14383;BME280;7275;50.328;8.720;2023-07-20T01:50:09;99473.84;;;22.57;43.54
14383;BME280;7275;50.328;8.720;2023-07-20T01:52:36;99466.88;;;22.54;43.00
14383;BME280;7275;50.328;8.720;2023-07-20T01:55:05;99469.13;;;22.49;43.26
14383;BME280;7275;50.328;8.720;2023-07-20T01:57:32;99476.50;;;22.47;43.48
14383;BME280;7275;50.328;8.720;2023-07-20T02:00:00;99472.22;;;22.45;43.32
14383;BME280;7275;50.328;8.720;2023-07-20T02:02:28;99475.06;;;22.43;43.60
14383;BME280;7275;50.328;8.720;2023-07-20T02:04:55;99478.47;;;22.45;43.40
14383;BME280;7275;50.328;8.720;2023-07-20T02:07:25;99478.47;;;22.45;43.73
14383;BME280;7275;50.328;8.720;2023-07-20T02:09:52;99468.00;;;22.42;43.58
14383;BME280;7275;50.328;8.720;2023-07-20T02:12:20;99477.03;;;22.41;43.86
14383;BME280;7275;50.328;8.720;2023-07-20T02:14:47;99477.03;;;22.41;43.61
14383;BME280;7275;50.328;8.720;2023-07-20T02:17:17;99479.75;;;22.41;43.71
14383;BME280;7275;50.328;8.720;2023-07-20T02:19:45;99481.03;;;22.47;43.70
14383;BME280;7275;50.328;8.720;2023-07-20T02:22:15;99473.38;;;22.52;43.86
14383;BME280;7275;50.328;8.720;2023-07-20T02:24:44;99479.22;;;22.57;44.06
14383;BME280;7275;50.328;8.720;2023-07-20T02:27:12;99475.00;;;22.64;44.10
14383;BME280;7275;50.328;8.720;2023-07-20T02:29:40;99481.56;;;22.71;43.96
14383;BME280;7275;50.328;8.720;2023-07-20T02:32:08;99482.28;;;22.73;43.89
14383;BME280;7275;50.328;8.720;2023-07-20T02:34:37;99479.00;;;22.79;44.00
14383;BME280;7275;50.328;8.720;2023-07-20T02:37:05;99480.44;;;22.83;43.71
14383;BME280;7275;50.328;8.720;2023-07-20T02:39:35;99481.00;;;22.86;43.59
14383;BME280;7275;50.328;8.720;2023-07-20T02:42:04;99471.06;;;22.87;44.00
14383;BME280;7275;50.328;8.720;2023-07-20T02:44:31;99475.19;;;22.91;43.64
14383;BME280;7275;50.328;8.720;2023-07-20T02:46:59;99476.34;;;22.98;43.41
14383;BME280;7275;50.328;8.720;2023-07-20T02:49:27;99470.38;;;23.04;43.89
14383;BME280;7275;50.328;8.720;2023-07-20T02:51:55;99474.81;;;23.05;43.69
14383;BME280;7275;50.328;8.720;2023-07-20T02:54:22;99476.22;;;23.09;43.98
14383;BME280;7275;50.328;8.720;2023-07-20T02:56:50;99471.38;;;23.13;43.61
14383;BME280;7275;50.328;8.720;2023-07-20T02:59:19;99468.28;;;23.17;43.91
14383;BME280;7275;50.328;8.720;2023-07-20T03:01:46;99475.94;;;23.22;43.98
14383;BME280;7275;50.328;8.720;2023-07-20T03:04:13;99479.34;;;23.24;43.54
14383;BME280;7275;50.328;8.720;2023-07-20T03:06:42;99478.34;;;23.25;43.72
14383;BME280;7275;50.328;8.720;2023-07-20T03:09:10;99480.06;;;23.26;43.72
14383;BME280;7275;50.328;8.720;2023-07-20T03:11:38;99486.16;;;23.28;43.35
14383;BME280;7275;50.328;8.720;2023-07-20T03:14:05;99494.25;;;23.28;43.72
14383;BME280;7275;50.328;8.720;2023-07-20T03:16:34;99481.59;;;23.28;43.96
14383;BME280;7275;50.328;8.720;2023-07-20T03:19:02;99481.19;;;23.33;43.51
14383;BME280;7275;50.328;8.720;2023-07-20T03:21:29;99479.91;;;23.37;43.48
14383;BME280;7275;50.328;8.720;2023-07-20T03:23:57;99474.81;;;23.34;43.58
14383;BME280;7275;50.328;8.720;2023-07-20T03:26:25;99477.22;;;23.37;43.65
14383;BME280;7275;50.328;8.720;2023-07-20T03:28:52;99471.81;;;23.37;43.80
14383;BME280;7275;50.328;8.720;2023-07-20T03:31:20;99478.78;;;23.39;44.36
14383;BME280;7275;50.328;8.720;2023-07-20T03:33:48;99476.66;;;23.43;44.34
14383;BME280;7275;50.328;8.720;2023-07-20T03:36:16;99477.50;;;23.43;44.24
14383;BME280;7275;50.328;8.720;2023-07-20T03:38:44;99476.38;;;23.46;43.90
14383;BME280;7275;50.328;8.720;2023-07-20T03:41:11;99479.63;;;23.49;44.20
14383;BME280;7275;50.328;8.720;2023-07-20T03:43:38;99493.13;;;23.49;44.33
14383;BME280;7275;50.328;8.720;2023-07-20T03:46:06;99486.03;;;23.48;44.26
14383;BME280;7275;50.328;8.720;2023-07-20T03:48:34;99489.59;;;23.49;44.47
14383;BME280;7275;50.328;8.720;2023-07-20T03:51:03;99488.56;;;23.50;44.14
14383;BME280;7275;50.328;8.720;2023-07-20T03:53:30;99496.53;;;23.51;44.37
14383;BME280;7275;50.328;8.720;2023-07-20T03:55:58;99500.78;;;23.54;44.30
14383;BME280;7275;50.328;8.720;2023-07-20T03:58:25;99503.22;;;23.57;44.70
14383;BME280;7275;50.328;8.720;2023-07-20T04:00:53;99499.22;;;23.61;44.52
14383;BME280;7275;50.328;8.720;2023-07-20T04:03:20;99498.91;;;23.64;44.16
14383;BME280;7275;50.328;8.720;2023-07-20T04:05:49;99506.75;;;23.67;44.35
14383;BME280;7275;50.328;8.720;2023-07-20T04:08:18;99514.53;;;23.70;44.55
14383;BME280;7275;50.328;8.720;2023-07-20T04:10:45;99506.44;;;23.70;44.44
14383;BME280;7275;50.328;8.720;2023-07-20T04:13:13;99506.31;;;23.71;44.50
14383;BME280;7275;50.328;8.720;2023-07-20T04:15:41;99508.44;;;23.68;44.50
14383;BME280;7275;50.328;8.720;2023-07-20T04:18:09;99510.16;;;23.69;44.23
14383;BME280;7275;50.328;8.720;2023-07-20T04:20:36;99515.56;;;23.69;44.70
14383;BME280;7275;50.328;8.720;2023-07-20T04:23:04;99516.09;;;23.72;44.72
14383;BME280;7275;50.328;8.720;2023-07-20T04:25:33;99514.25;;;23.73;44.66
14383;BME280;7275;50.328;8.720;2023-07-20T04:28:06;99504.31;;;23.73;44.63
14383;BME280;7275;50.328;8.720;2023-07-20T04:30:36;99506.72;;;23.76;44.35
14383;BME280;7275;50.328;8.720;2023-07-20T04:33:04;99511.13;;;23.77;44.42
14383;BME280;7275;50.328;8.720;2023-07-20T04:35:46;99506.00;;;23.74;44.67
14383;BME280;7275;50.328;8.720;2023-07-20T04:38:14;99509.84;;;23.72;44.47
14383;BME280;7275;50.328;8.720;2023-07-20T04:40:46;99504.91;;;23.67;44.40
14383;BME280;7275;50.328;8.720;2023-07-20T04:43:14;99510.72;;;23.63;44.41
14383;BME280;7275;50.328;8.720;2023-07-20T04:45:42;99509.31;;;23.59;44.64
14383;BME280;7275;50.328;8.720;2023-07-20T04:48:11;99518.69;;;23.55;44.79
14383;BME280;7275;50.328;8.720;2023-07-20T04:50:40;99517.13;;;23.52;44.53
14383;BME280;7275;50.328;8.720;2023-07-20T04:53:08;99519.84;;;23.52;44.57
14383;BME280;7275;50.328;8.720;2023-07-20T04:55:37;99511.31;;;23.47;44.59
14383;BME280;7275;50.328;8.720;2023-07-20T04:58:07;99517.81;;;23.45;44.51
14383;BME280;7275;50.328;8.720;2023-07-20T05:00:35;99512.59;;;23.43;44.17
14383;BME280;7275;50.328;8.720;2023-07-20T05:03:02;99519.53;;;23.46;44.17
14383;BME280;7275;50.328;8.720;2023-07-20T05:05:31;99532.63;;;23.50;44.39
14383;BME280;7275;50.328;8.720;2023-07-20T05:07:59;99525.63;;;23.57;44.56
14383;BME280;7275;50.328;8.720;2023-07-20T05:10:26;99529.47;;;23.64;44.76
14383;BME280;7275;50.328;8.720;2023-07-20T05:12:54;99530.72;;;23.70;45.01
14383;BME280;7275;50.328;8.720;2023-07-20T05:15:23;99529.19;;;23.77;44.62
14383;BME280;7275;50.328;8.720;2023-07-20T05:17:51;99536.84;;;23.81;44.69
14383;BME280;7275;50.328;8.720;2023-07-20T05:20:19;99536.41;;;23.86;44.37
14383;BME280;7275;50.328;8.720;2023-07-20T05:22:46;99534.44;;;23.88;44.10
14383;BME280;7275;50.328;8.720;2023-07-20T05:25:14;99526.16;;;23.90;44.21
14383;BME280;7275;50.328;8.720;2023-07-20T05:27:44;99527.72;;;23.92;44.27
14383;BME280;7275;50.328;8.720;2023-07-20T05:30:12;99523.47;;;23.90;44.35
14383;BME280;7275;50.328;8.720;2023-07-20T05:32:41;99531.72;;;23.88;44.44
14383;BME280;7275;50.328;8.720;2023-07-20T05:35:09;99533.72;;;23.86;44.73
14383;BME280;7275;50.328;8.720;2023-07-20T05:37:37;99542.38;;;23.90;44.80
14383;BME280;7275;50.328;8.720;2023-07-20T05:40:06;99542.91;;;23.93;44.60
14383;BME280;7275;50.328;8.720;2023-07-20T05:42:34;99541.63;;;23.97;44.49
14383;BME280;7275;50.328;8.720;2023-07-20T05:45:01;99547.91;;;23.98;44.33
14383;BME280;7275;50.328;8.720;2023-07-20T05:47:29;99539.25;;;23.94;44.32
14383;BME280;7275;50.328;8.720;2023-07-20T05:49:58;99543.22;;;23.90;44.23
14383;BME280;7275;50.328;8.720;2023-07-20T05:52:25;99546.91;;;23.89;44.50
14383;BME280;7275;50.328;8.720;2023-07-20T05:54:53;99548.03;;;23.96;44.41
14383;BME280;7275;50.328;8.720;2023-07-20T05:57:21;99548.59;;;24.00;44.52
14383;BME280;7275;50.328;8.720;2023-07-20T05:59:48;99551.03;;;24.03;44.57
14383;BME280;7275;50.328;8.720;2023-07-20T06:02:16;99549.75;;;24.07;44.58
14383;BME280;7275;50.328;8.720;2023-07-20T06:04:43;99557.69;;;24.18;44.22
14383;BME280;7275;50.328;8.720;2023-07-20T06:07:12;99545.84;;;24.28;44.04
14383;BME280;7275;50.328;8.720;2023-07-20T06:09:40;99552.78;;;24.40;44.00
14383;BME280;7275;50.328;8.720;2023-07-20T06:12:08;99555.28;;;24.51;43.87
14383;BME280;7275;50.328;8.720;2023-07-20T06:14:36;99565.75;;;24.64;43.86
14383;BME280;7275;50.328;8.720;2023-07-20T06:17:05;99562.47;;;24.70;43.44
14383;BME280;7275;50.328;8.720;2023-07-20T06:19:32;99563.44;;;24.79;43.67
14383;BME280;7275;50.328;8.720;2023-07-20T06:22:00;99553.91;;;24.84;43.25
14383;BME280;7275;50.328;8.720;2023-07-20T06:24:29;99568.66;;;24.90;43.35
14383;BME280;7275;50.328;8.720;2023-07-20T06:26:56;99555.44;;;24.87;43.31
14383;BME280;7275;50.328;8.720;2023-07-20T06:29:24;99556.44;;;24.86;43.64
14383;BME280;7275;50.328;8.720;2023-07-20T06:31:51;99551.19;;;24.84;43.38
14383;BME280;7275;50.328;8.720;2023-07-20T06:34:19;99554.72;;;24.85;43.54
14383;BME280;7275;50.328;8.720;2023-07-20T06:36:49;99549.56;;;24.91;43.30
14383;BME280;7275;50.328;8.720;2023-07-20T06:39:17;99559.16;;;25.03;43.21
14383;BME280;7275;50.328;8.720;2023-07-20T06:41:49;99562.78;;;25.21;43.18
14383;BME280;7275;50.328;8.720;2023-07-20T06:44:19;99561.78;;;25.40;42.98
14383;BME280;7275;50.328;8.720;2023-07-20T06:46:47;99566.69;;;25.54;42.41
14383;BME280;7275;50.328;8.720;2023-07-20T06:49:24;99571.31;;;25.62;42.42
14383;BME280;7275;50.328;8.720;2023-07-20T06:51:52;99572.41;;;25.69;42.34
14383;BME280;7275;50.328;8.720;2023-07-20T06:54:19;99571.75;;;25.75;41.94
14383;BME280;7275;50.328;8.720;2023-07-20T06:56:51;99581.44;;;25.77;41.73
14383;BME280;7275;50.328;8.720;2023-07-20T06:59:21;99576.94;;;25.86;41.48
14383;BME280;7275;50.328;8.720;2023-07-20T07:01:50;99573.91;;;25.89;41.52
14383;BME280;7275;50.328;8.720;2023-07-20T07:04:18;99571.28;;;25.97;41.44
14383;BME280;7275;50.328;8.720;2023-07-20T07:06:45;99580.47;;;26.04;41.32
14383;BME280;7275;50.328;8.720;2023-07-20T07:09:13;99578.00;;;26.10;40.78
14383;BME280;7275;50.328;8.720;2023-07-20T07:11:40;99572.94;;;26.07;40.84
14383;BME280;7275;50.328;8.720;2023-07-20T07:14:09;99573.28;;;26.12;41.21
14383;BME280;7275;50.328;8.720;2023-07-20T07:16:37;99574.03;;;26.23;40.58
14383;BME280;7275;50.328;8.720;2023-07-20T07:19:05;99574.41;;;26.28;40.64
14383;BME280;7275;50.328;8.720;2023-07-20T07:21:33;99580.53;;;26.30;40.19
14383;BME280;7275;50.328;8.720;2023-07-20T07:24:01;99579.41;;;26.40;39.74
14383;BME280;7275;50.328;8.720;2023-07-20T07:26:30;99583.88;;;26.49;39.48
14383;BME280;7275;50.328;8.720;2023-07-20T07:28:57;99579.19;;;26.59;39.39
14383;BME280;7275;50.328;8.720;2023-07-20T07:31:28;99581.06;;;26.67;39.04
14383;BME280;7275;50.328;8.720;2023-07-20T07:33:56;99581.81;;;26.77;39.26
14383;BME280;7275;50.328;8.720;2023-07-20T07:36:23;99580.00;;;26.85;38.85
14383;BME280;7275;50.328;8.720;2023-07-20T07:38:51;99583.94;;;26.91;38.93
14383;BME280;7275;50.328;8.720;2023-07-20T07:41:22;99588.81;;;26.87;38.54
14383;BME280;7275;50.328;8.720;2023-07-20T07:43:49;99587.63;;;26.82;38.36
14383;BME280;7275;50.328;8.720;2023-07-20T07:46:17;99592.19;;;26.81;38.60
14383;BME280;7275;50.328;8.720;2023-07-20T07:48:46;99592.84;;;26.75;38.53
14383;BME280;7275;50.328;8.720;2023-07-20T07:51:13;99595.72;;;26.74;38.44
14383;BME280;7275;50.328;8.720;2023-07-20T07:53:42;99593.28;;;26.71;38.87
14383;BME280;7275;50.328;8.720;2023-07-20T07:56:10;99593.28;;;26.71;38.85
14383;BME280;7275;50.328;8.720;2023-07-20T07:58:37;99597.03;;;26.70;39.06
14383;BME280;7275;50.328;8.720;2023-07-20T08:01:05;99597.19;;;26.68;38.65
14383;BME280;7275;50.328;8.720;2023-07-20T08:03:33;99596.66;;;26.65;38.79
14383;BME280;7275;50.328;8.720;2023-07-20T08:06:03;99589.34;;;26.57;38.67
14383;BME280;7275;50.328;8.720;2023-07-20T08:08:31;99595.28;;;26.61;38.73
14383;BME280;7275;50.328;8.720;2023-07-20T08:10:59;99598.03;;;26.69;38.70
14383;BME280;7275;50.328;8.720;2023-07-20T08:13:33;99588.28;;;26.76;38.62
14383;BME280;7275;50.328;8.720;2023-07-20T08:16:01;99591.03;;;26.84;38.24
14383;BME280;7275;50.328;8.720;2023-07-20T08:18:29;99590.88;;;26.93;38.45
14383;BME280;7275;50.328;8.720;2023-07-20T08:20:57;99580.72;;;27.04;37.95
14383;BME280;7275;50.328;8.720;2023-07-20T08:23:26;99588.56;;;27.07;38.12
14383;BME280;7275;50.328;8.720;2023-07-20T08:25:54;99576.19;;;27.12;38.30
14383;BME280;7275;50.328;8.720;2023-07-20T08:28:22;99588.28;;;27.26;38.40
14383;BME280;7275;50.328;8.720;2023-07-20T08:30:49;99588.03;;;27.45;37.63
14383;BME280;7275;50.328;8.720;2023-07-20T08:33:18;99591.25;;;27.64;37.38
14383;BME280;7275;50.328;8.720;2023-07-20T08:35:46;99591.81;;;27.76;37.14
14383;BME280;7275;50.328;8.720;2023-07-20T08:38:14;99592.47;;;27.86;36.74
14383;BME280;7275;50.328;8.720;2023-07-20T08:40:44;99599.47;;;27.97;36.76
14383;BME280;7275;50.328;8.720;2023-07-20T08:43:13;99605.78;;;27.97;36.39
14383;BME280;7275;50.328;8.720;2023-07-20T08:45:44;99601.34;;;27.96;36.91
14383;BME280;7275;50.328;8.720;2023-07-20T08:48:12;99593.84;;;28.06;36.70
14383;BME280;7275;50.328;8.720;2023-07-20T08:50:41;99588.94;;;28.18;36.33
14383;BME280;7275;50.328;8.720;2023-07-20T08:53:10;99589.41;;;28.37;36.41
14383;BME280;7275;50.328;8.720;2023-07-20T08:55:38;99587.84;;;28.51;36.04
14383;BME280;7275;50.328;8.720;2023-07-20T08:58:08;99588.88;;;28.66;35.83
14383;BME280;7275;50.328;8.720;2023-07-20T09:00:39;99586.41;;;28.79;36.08
14383;BME280;7275;50.328;8.720;2023-07-20T09:03:10;99584.19;;;28.91;35.41
14383;BME280;7275;50.328;8.720;2023-07-20T09:05:39;99585.00;;;28.99;34.72
14383;BME280;7275;50.328;8.720;2023-07-20T09:08:07;99586.50;;;29.02;33.93
14383;BME280;7275;50.328;8.720;2023-07-20T09:10:35;99582.03;;;29.09;34.24
14383;BME280;7275;50.328;8.720;2023-07-20T09:13:02;99582.69;;;29.19;33.56
14383;BME280;7275;50.328;8.720;2023-07-20T09:15:31;99578.78;;;29.21;33.30
14383;BME280;7275;50.328;8.720;2023-07-20T09:18:01;99577.25;;;29.19;33.51
14383;BME280;7275;50.328;8.720;2023-07-20T09:20:31;99583.06;;;29.16;33.56
14383;BME280;7275;50.328;8.720;2023-07-20T09:22:59;99579.50;;;29.15;32.56
14383;BME280;7275;50.328;8.720;2023-07-20T09:25:31;99579.63;;;29.22;33.01
14383;BME280;7275;50.328;8.720;2023-07-20T09:28:02;99573.22;;;29.38;33.16
14383;BME280;7275;50.328;8.720;2023-07-20T09:30:33;99587.53;;;29.62;33.39
14383;BME280;7275;50.328;8.720;2023-07-20T09:33:01;99587.59;;;29.85;32.72
14383;BME280;7275;50.328;8.720;2023-07-20T09:35:28;99582.09;;;30.08;32.02
14383;BME280;7275;50.328;8.720;2023-07-20T09:38:08;99580.34;;;30.29;31.80
14383;BME280;7275;50.328;8.720;2023-07-20T09:40:39;99579.56;;;30.43;31.40
14383;BME280;7275;50.328;8.720;2023-07-20T09:43:11;99574.22;;;30.50;30.38
14383;BME280;7275;50.328;8.720;2023-07-20T09:45:43;99572.50;;;30.63;30.39
14383;BME280;7275;50.328;8.720;2023-07-20T09:48:13;99567.91;;;30.78;30.29
14383;BME280;7275;50.328;8.720;2023-07-20T09:50:50;99571.31;;;30.95;30.19
14383;BME280;7275;50.328;8.720;2023-07-20T09:53:19;99556.88;;;31.01;29.43
14383;BME280;7275;50.328;8.720;2023-07-20T09:55:47;99567.16;;;30.99;29.00
14383;BME280;7275;50.328;8.720;2023-07-20T09:58:15;99566.59;;;31.04;30.37
14383;BME280;7275;50.328;8.720;2023-07-20T10:00:45;99558.84;;;31.07;29.65
14383;BME280;7275;50.328;8.720;2023-07-20T10:03:20;99559.59;;;31.16;29.24
14383;BME280;7275;50.328;8.720;2023-07-20T10:05:52;99551.34;;;31.30;29.10
14383;BME280;7275;50.328;8.720;2023-07-20T10:08:24;99563.22;;;31.37;28.56
14383;BME280;7275;50.328;8.720;2023-07-20T10:10:55;99555.75;;;31.31;28.87
14383;BME280;7275;50.328;8.720;2023-07-20T10:13:26;99554.28;;;31.29;29.31
14383;BME280;7275;50.328;8.720;2023-07-20T10:15:59;99561.31;;;31.38;29.29
14383;BME280;7275;50.328;8.720;2023-07-20T10:18:34;99564.81;;;31.46;28.43
14383;BME280;7275;50.328;8.720;2023-07-20T10:21:04;99549.31;;;31.53;27.97
14383;BME280;7275;50.328;8.720;2023-07-20T10:23:36;99550.06;;;31.62;28.14
14383;BME280;7275;50.328;8.720;2023-07-20T10:26:06;99554.31;;;31.71;27.97
14383;BME280;7275;50.328;8.720;2023-07-20T10:28:35;99547.69;;;31.80;27.44
14383;BME280;7275;50.328;8.720;2023-07-20T10:31:05;99538.97;;;31.91;27.12
14383;BME280;7275;50.328;8.720;2023-07-20T10:33:34;99538.50;;;32.09;27.67
14383;BME280;7275;50.328;8.720;2023-07-20T10:36:04;99526.75;;;32.15;27.67
14383;BME280;7275;50.328;8.720;2023-07-20T10:38:39;99524.06;;;32.21;26.92
14383;BME280;7275;50.328;8.720;2023-07-20T10:41:16;99519.25;;;32.23;27.02
14383;BME280;7275;50.328;8.720;2023-07-20T10:43:46;99527.44;;;32.23;25.41
14383;BME280;7275;50.328;8.720;2023-07-20T10:46:33;99518.44;;;32.29;26.67
14383;BME280;7275;50.328;8.720;2023-07-20T10:49:02;99513.50;;;32.46;26.02
14383;BME280;7275;50.328;8.720;2023-07-20T10:51:38;99519.28;;;32.58;25.43
14383;BME280;7275;50.328;8.720;2023-07-20T10:54:08;99505.03;;;32.69;25.27
14383;BME280;7275;50.328;8.720;2023-07-20T10:56:35;99515.19;;;32.81;25.35
14383;BME280;7275;50.328;8.720;2023-07-20T10:59:17;99503.44;;;32.87;25.23
14383;BME280;7275;50.328;8.720;2023-07-20T11:01:47;99508.78;;;33.02;25.48
14383;BME280;7275;50.328;8.720;2023-07-20T11:04:16;99521.47;;;33.16;25.13
14383;BME280;7275;50.328;8.720;2023-07-20T11:06:45;99509.66;;;33.16;24.43
14383;BME280;7275;50.328;8.720;2023-07-20T11:09:14;99517.44;;;33.12;24.74
14383;BME280;7275;50.328;8.720;2023-07-20T11:11:43;99510.28;;;33.18;25.47
14383;BME280;7275;50.328;8.720;2023-07-20T11:14:20;99497.25;;;33.26;24.92
14383;BME280;7275;50.328;8.720;2023-07-20T11:16:50;99501.69;;;33.34;24.45
14383;BME280;7275;50.328;8.720;2023-07-20T11:19:20;99504.44;;;33.47;24.03
14383;BME280;7275;50.328;8.720;2023-07-20T11:21:53;99507.66;;;33.63;23.62
14383;BME280;7275;50.328;8.720;2023-07-20T11:24:29;99503.25;;;33.75;22.88
14383;BME280;7275;50.328;8.720;2023-07-20T11:26:58;99506.44;;;33.86;23.64
14383;BME280;7275;50.328;8.720;2023-07-20T11:29:26;99494.19;;;33.75;23.09
14383;BME280;7275;50.328;8.720;2023-07-20T11:32:01;99487.41;;;33.84;23.17
14383;BME280;7275;50.328;8.720;2023-07-20T11:34:33;99495.25;;;33.87;23.49
14383;BME280;7275;50.328;8.720;2023-07-20T11:37:01;99482.16;;;33.89;22.27
14383;BME280;7275;50.328;8.720;2023-07-20T11:39:33;99482.81;;;34.04;22.77
14383;BME280;7275;50.328;8.720;2023-07-20T11:42:00;99482.59;;;34.12;21.84
14383;BME280;7275;50.328;8.720;2023-07-20T11:44:28;99474.97;;;34.27;22.17
14383;BME280;7275;50.328;8.720;2023-07-20T11:47:03;99475.13;;;34.39;22.15
14383;BME280;7275;50.328;8.720;2023-07-20T11:49:35;99475.97;;;34.39;21.81
14383;BME280;7275;50.328;8.720;2023-07-20T11:52:04;99466.03;;;34.38;22.19
14383;BME280;7275;50.328;8.720;2023-07-20T11:54:32;99471.78;;;34.30;21.64
14383;BME280;7275;50.328;8.720;2023-07-20T11:57:00;99476.66;;;34.22;22.29
14383;BME280;7275;50.328;8.720;2023-07-20T11:59:28;99469.47;;;34.27;22.24
14383;BME280;7275;50.328;8.720;2023-07-20T12:01:58;99468.78;;;34.38;21.33
14383;BME280;7275;50.328;8.720;2023-07-20T12:04:27;99466.28;;;34.50;21.23
14383;BME280;7275;50.328;8.720;2023-07-20T12:06:55;99463.44;;;34.63;21.08
14383;BME280;7275;50.328;8.720;2023-07-20T12:09:22;99466.78;;;34.78;21.05
14383;BME280;7275;50.328;8.720;2023-07-20T12:11:55;99458.91;;;34.88;21.06
14383;BME280;7275;50.328;8.720;2023-07-20T12:14:25;99441.13;;;34.97;19.80
14383;BME280;7275;50.328;8.720;2023-07-20T12:16:53;99449.59;;;35.02;19.46
14383;BME280;7275;50.328;8.720;2023-07-20T12:19:26;99448.03;;;35.13;20.30
14383;BME280;7275;50.328;8.720;2023-07-20T12:21:57;99455.53;;;35.30;19.98
14383;BME280;7275;50.328;8.720;2023-07-20T12:24:25;99454.00;;;35.34;19.49
14383;BME280;7275;50.328;8.720;2023-07-20T12:26:56;99457.84;;;35.33;18.71
14383;BME280;7275;50.328;8.720;2023-07-20T12:29:24;99454.69;;;35.30;18.83
14383;BME280;7275;50.328;8.720;2023-07-20T12:31:52;99452.31;;;35.40;19.36
14383;BME280;7275;50.328;8.720;2023-07-20T12:34:20;99448.25;;;35.43;18.97
14383;BME280;7275;50.328;8.720;2023-07-20T12:36:49;99445.28;;;35.51;19.61
14383;BME280;7275;50.328;8.720;2023-07-20T12:39:17;99436.31;;;35.55;18.90
14383;BME280;7275;50.328;8.720;2023-07-20T12:41:44;99447.91;;;35.64;19.05
14383;BME280;7275;50.328;8.720;2023-07-20T12:44:12;99438.31;;;35.73;19.19
14383;BME280;7275;50.328;8.720;2023-07-20T12:46:41;99443.59;;;35.92;19.31
14383;BME280;7275;50.328;8.720;2023-07-20T12:49:08;99436.50;;;36.09;19.56
14383;BME280;7275;50.328;8.720;2023-07-20T12:51:36;99435.00;;;36.32;19.63
14383;BME280;7275;50.328;8.720;2023-07-20T12:54:05;99426.91;;;36.55;18.97
14383;BME280;7275;50.328;8.720;2023-07-20T12:56:33;99428.41;;;36.69;18.22
14383;BME280;7275;50.328;8.720;2023-07-20T12:59:03;99435.06;;;36.79;17.27
14383;BME280;7275;50.328;8.720;2023-07-20T13:01:32;99437.44;;;36.94;17.54
14383;BME280;7275;50.328;8.720;2023-07-20T13:03:59;99427.06;;;37.08;18.27
14383;BME280;7275;50.328;8.720;2023-07-20T13:06:30;99420.88;;;37.24;17.94
14383;BME280;7275;50.328;8.720;2023-07-20T13:08:57;99416.88;;;37.38;18.07
14383;BME280;7275;50.328;8.720;2023-07-20T13:11:26;99411.75;;;37.53;18.20
14383;BME280;7275;50.328;8.720;2023-07-20T13:13:54;99421.34;;;37.62;16.92
14383;BME280;7275;50.328;8.720;2023-07-20T13:16:21;99419.53;;;37.56;16.26
14383;BME280;7275;50.328;8.720;2023-07-20T13:18:49;99423.00;;;37.40;16.39
14383;BME280;7275;50.328;8.720;2023-07-20T13:21:17;99414.63;;;37.28;16.79